Terminal Aerodrome Forecast
Issued by NWS

Home | Current Version | Previous Version | Text Only | Print | Product List | Glossary On
Versions: 1 2 3 4 5 6 7 8 9 10 11 12 13 14 15 16
478
FTUS44 KTSA 221256 AAA
TAFMLC
TAF AMD
KMLC 221256Z 2213/2312 34010KT P6SM BKN025 BKN060
      TEMPO 2213/2214 2SM -RA BKN006 BKN012
     FM221400 34011KT P6SM SCT025 BKN080 BKN250
     FM221800 35011KT P6SM FEW250
     FM230100 VRB02KT P6SM SKC=

USA.gov is the U.S. government's official web portal to all federal, state and local government web resources and services.